Terminal Aerodrome Forecast
Issued by NWS Tallahassee, FL

Home | Current Version | Previous Version | Text Only | Print | Product List | Glossary On
Versions: 1 2 3 4 5 6 7 8 9 10 11 12 13 14 15 16 17 18
000
FTUS42 KTAE 192320
TAFTLH
TAF
KTLH 192320Z 2000/2024 36004KT P6SM SCT060
     FM200800 00000KT 4SM BR FEW250
     FM201300 10005KT P6SM SKC
     FM201900 15005KT P6SM FEW040=

USA.gov is the U.S. government's official web portal to all federal, state and local government web resources and services.